Time;durP1;ratioP1;P1;durP2;ratioP2;P2;SDS_P1;SDS_P2;PMS_P1;PMS_P2;Temp;Humidity;BMP_temperature;BMP_pressure;BME280_temperature;BME280_humidity;BME280_pressure;Samples;Min_cycle;Max_cycle;Signal;HPM_P1;HPM_P2
2022/09/12 00:01:19;;;;;;;0.85;0.70;;;17.90;91.40;;;;;;5032371;28;20200;-55
2022/09/12 00:03:46;;;;;;;0.90;0.90;;;17.90;91.40;;;;;;5029731;28;20230;-55
2022/09/12 00:06:17;;;;;;;0.80;0.80;;;17.80;91.40;;;;;;5029975;28;20273;-53
2022/09/12 00:08:44;;;;;;;0.73;0.73;;;17.90;91.40;;;;;;5030400;28;20209;-54
2022/09/12 00:11:12;;;;;;;0.75;0.75;;;17.80;91.40;;;;;;5029959;28;20700;-53
2022/09/12 00:13:41;;;;;;;0.70;0.70;;;17.90;91.50;;;;;;5034517;28;20190;-51
2022/09/12 00:16:14;;;;;;;0.82;0.73;;;17.80;91.50;;;;;;5037005;28;20199;-57
2022/09/12 00:18:41;;;;;;;0.70;0.70;;;17.80;91.50;;;;;;5040598;28;20612;-54
2022/09/12 00:21:08;;;;;;;0.68;0.63;;;17.80;91.50;;;;;;5029039;28;20194;-54
2022/09/12 00:23:37;;;;;;;0.75;0.75;;;17.80;91.50;;;;;;5028085;28;20214;-51
2022/09/12 00:26:05;;;;;;;0.60;0.60;;;17.70;91.40;;;;;;5035970;28;20273;-54
2022/09/12 00:28:33;;;;;;;0.65;0.65;;;17.70;91.40;;;;;;5032751;28;20218;-54
2022/09/12 00:31:04;;;;;;;1.85;0.50;;;17.70;91.50;;;;;;5032187;28;20201;-53
2022/09/12 00:33:31;;;;;;;0.52;0.52;;;17.70;91.50;;;;;;5039605;28;20182;-56
2022/09/12 00:35:58;;;;;;;0.68;0.68;;;17.70;91.50;;;;;;5042667;28;20613;-54
2022/09/12 00:38:25;;;;;;;0.70;0.70;;;17.70;91.50;;;;;;5023236;28;20606;-55
2022/09/12 00:40:54;;;;;;;0.50;0.50;;;17.70;91.50;;;;;;5020242;28;20261;-55
2022/09/12 00:43:39;;;;;;;0.70;0.70;;;17.70;91.50;;;;;;5026648;28;20210;-55
2022/09/12 00:46:16;;;;;;;0.63;0.63;;;17.70;91.50;;;;;;5021314;28;20209;-55
2022/09/12 00:48:49;;;;;;;0.40;0.40;;;17.70;91.50;;;;;;5028362;28;20301;-46
2022/09/12 00:51:17;;;;;;;0.60;0.60;;;17.70;91.50;;;;;;5031819;28;20226;-45
2022/09/12 00:53:47;;;;;;;0.75;0.75;;;17.70;91.50;;;;;;5023938;28;20198;-48
2022/09/12 00:56:18;;;;;;;0.73;0.73;;;17.60;91.50;;;;;;5022882;28;20273;-47
2022/09/12 00:58:51;;;;;;;1.00;0.70;;;17.60;91.50;;;;;;5032942;28;20195;-47
2022/09/12 01:01:19;;;;;;;0.60;0.60;;;17.60;91.50;;;;;;5055105;22;20306;-81
2022/09/12 01:03:46;;;;;;;0.82;0.65;;;17.60;91.60;;;;;;5058868;28;20344;-81
2022/09/12 01:06:18;;;;;;;1.45;0.63;;;17.60;91.50;;;;;;5065903;28;20292;-80
2022/09/12 01:08:47;;;;;;;0.68;0.68;;;17.60;91.60;;;;;;5059891;28;20296;-80
2022/09/12 01:11:16;;;;;;;0.60;0.60;;;17.60;91.70;;;;;;5085449;28;20267;-80
2022/09/12 01:13:44;;;;;;;0.60;0.60;;;17.50;91.60;;;;;;5064962;28;20263;-81
2022/09/12 01:16:12;;;;;;;1.00;0.90;;;17.50;91.60;;;;;;5072999;28;20302;-82
2022/09/12 01:18:53;;;;;;;0.60;0.60;;;17.60;91.60;;;;;;5098633;27;20307;-82
2022/09/12 01:21:33;;;;;;;0.50;0.50;;;17.50;91.60;;;;;;5081477;28;20558;-80
2022/09/12 01:24:36;;;;;;;0.63;0.63;;;17.50;91.60;;;;;;5091613;28;20571;-80
2022/09/12 01:27:41;;;;;;;0.65;0.60;;;17.50;91.60;;;;;;5070083;28;20204;-80
2022/09/12 01:30:22;;;;;;;1.35;0.75;;;17.50;91.60;;;;;;5087083;28;20206;-80
2022/09/12 01:33:03;;;;;;;0.50;0.50;;;17.50;91.60;;;;;;5082213;28;20279;-80
2022/09/12 01:35:38;;;;;;;0.57;0.57;;;17.50;91.60;;;;;;5091506;28;20303;-81
2022/09/12 01:38:11;;;;;;;0.55;0.55;;;17.50;91.60;;;;;;5088770;28;20268;-80
2022/09/12 01:40:47;;;;;;;0.50;0.50;;;17.40;91.60;;;;;;5089723;28;20540;-80
2022/09/12 01:43:22;;;;;;;1.90;0.82;;;17.40;91.60;;;;;;5083672;28;20287;-80
2022/09/12 01:45:58;;;;;;;0.60;0.60;;;17.40;91.60;;;;;;5091539;28;20232;-81
2022/09/12 01:48:30;;;;;;;0.57;0.57;;;17.40;91.70;;;;;;5077789;28;20203;-81
2022/09/12 01:51:04;;;;;;;0.50;0.50;;;17.40;91.70;;;;;;5070055;28;20191;-81
2022/09/12 01:53:36;;;;;;;2.03;0.80;;;17.40;91.80;;;;;;5088012;28;20187;-81
2022/09/12 01:56:09;;;;;;;0.63;0.63;;;17.40;91.80;;;;;;5074188;28;20220;-81
2022/09/12 01:58:43;;;;;;;0.63;0.63;;;17.40;91.80;;;;;;5085819;28;20664;-81
2022/09/12 02:01:16;;;;;;;0.65;0.60;;;17.40;91.80;;;;;;5086134;28;20234;-80
2022/09/12 02:03:47;;;;;;;0.68;0.60;;;17.40;91.80;;;;;;5095747;28;20207;-81
2022/09/12 02:06:19;;;;;;;0.70;0.70;;;17.40;91.90;;;;;;5086288;28;20287;-81
2022/09/12 02:08:51;;;;;;;0.50;0.50;;;17.30;91.90;;;;;;5088449;28;20225;-81
2022/09/12 02:11:19;;;;;;;1.27;0.50;;;17.30;91.90;;;;;;5082747;28;20204;-81
2022/09/12 02:13:53;;;;;;;0.50;0.50;;;17.30;91.80;;;;;;5082374;28;20196;-80
2022/09/12 02:16:29;;;;;;;0.85;0.70;;;17.30;91.80;;;;;;5064226;28;20264;-81
2022/09/12 02:19:02;;;;;;;0.40;0.40;;;17.30;91.80;;;;;;5086506;28;20244;-80
2022/09/12 02:21:31;;;;;;;0.60;0.60;;;17.30;91.80;;;;;;5071677;28;20615;-80
2022/09/12 02:24:02;;;;;;;0.53;0.53;;;17.30;91.80;;;;;;5073204;28;20587;-82
2022/09/12 02:26:34;;;;;;;0.50;0.50;;;17.30;91.90;;;;;;5067828;28;20514;-80
2022/09/12 02:29:01;;;;;;;0.77;0.43;;;17.30;91.90;;;;;;5068273;28;20203;-80
2022/09/12 02:31:37;;;;;;;0.60;0.60;;;17.20;91.90;;;;;;5096977;28;20203;-81
2022/09/12 02:34:13;;;;;;;0.50;0.50;;;17.20;92.00;;;;;;5091325;28;21170;-81
2022/09/12 02:36:50;;;;;;;0.87;0.60;;;17.20;92.00;;;;;;5089548;28;20191;-81
2022/09/12 02:39:20;;;;;;;0.52;0.52;;;17.20;92.00;;;;;;5086998;28;20191;-81
2022/09/12 02:41:47;;;;;;;0.73;0.73;;;17.20;92.10;;;;;;5096110;28;20725;-81
2022/09/12 02:44:14;;;;;;;0.70;0.70;;;17.20;92.00;;;;;;5088419;28;20253;-81
2022/09/12 02:46:47;;;;;;;0.60;0.60;;;17.20;92.00;;;;;;5075861;28;20203;-80
2022/09/12 02:49:14;;;;;;;0.70;0.70;;;17.20;92.10;;;;;;5090523;28;20296;-81
2022/09/12 02:51:42;;;;;;;0.75;0.70;;;17.20;92.10;;;;;;5085502;28;20571;-81
2022/09/12 02:54:10;;;;;;;2.90;0.70;;;17.20;92.20;;;;;;5064622;28;20211;-81
2022/09/12 02:56:42;;;;;;;0.77;0.77;;;17.10;92.10;;;;;;5066487;28;20293;-81
2022/09/12 02:59:12;;;;;;;0.57;0.57;;;17.10;92.10;;;;;;5087214;28;20218;-82
2022/09/12 03:01:54;;;;;;;0.65;0.50;;;17.10;92.10;;;;;;5085105;28;20305;-81
2022/09/12 03:04:46;;;;;;;0.60;0.60;;;17.10;92.50;;;;;;5087300;28;20211;-80
2022/09/12 03:07:20;;;;;;;0.90;0.50;;;17.10;92.10;;;;;;5084803;28;20263;-80
2022/09/12 03:09:57;;;;;;;0.60;0.60;;;17.10;92.20;;;;;;5092899;28;20236;-81
2022/09/12 03:12:36;;;;;;;0.57;0.57;;;17.10;92.20;;;;;;5095737;28;20325;-82
2022/09/12 03:15:15;;;;;;;0.75;0.60;;;17.10;92.20;;;;;;5091754;28;20259;-81
2022/09/12 03:17:58;;;;;;;1.10;0.60;;;17.10;92.20;;;;;;5075829;28;20212;-81
2022/09/12 03:20:37;;;;;;;0.60;0.60;;;17.00;92.20;;;;;;5087736;28;20194;-80
2022/09/12 03:23:11;;;;;;;0.50;0.50;;;17.10;92.30;;;;;;5093557;28;20217;-81
2022/09/12 03:25:44;;;;;;;0.60;0.60;;;17.10;92.20;;;;;;5086690;28;20207;-81
2022/09/12 03:28:14;;;;;;;0.95;0.73;;;17.10;92.20;;;;;;5070479;28;20193;-81
2022/09/12 03:30:42;;;;;;;0.55;0.55;;;17.00;92.20;;;;;;5075349;28;20196;-81
2022/09/12 03:33:12;;;;;;;0.50;0.50;;;17.00;92.20;;;;;;5087473;28;20709;-81
2022/09/12 03:35:39;;;;;;;0.50;0.50;;;17.00;92.30;;;;;;5089178;28;20196;-81
2022/09/12 03:38:07;;;;;;;0.57;0.57;;;17.00;92.30;;;;;;5093008;28;20200;-81
2022/09/12 03:40:34;;;;;;;0.77;0.77;;;17.00;92.30;;;;;;5089824;28;20208;-80
2022/09/12 03:43:02;;;;;;;0.60;0.60;;;17.00;92.30;;;;;;5098035;28;20269;-80
2022/09/12 03:45:29;;;;;;;0.40;0.40;;;17.00;92.30;;;;;;5069680;28;20219;-82
2022/09/12 03:47:56;;;;;;;0.52;0.52;;;17.00;92.30;;;;;;5087464;28;20284;-81
2022/09/12 03:50:24;;;;;;;0.50;0.50;;;17.00;92.30;;;;;;5091264;28;20723;-82
2022/09/12 03:52:51;;;;;;;0.70;0.70;;;17.00;92.30;;;;;;5090143;28;20217;-82
2022/09/12 03:55:18;;;;;;;0.60;0.60;;;17.10;92.30;;;;;;5088394;28;20560;-83
2022/09/12 03:57:45;;;;;;;1.95;0.57;;;17.00;92.30;;;;;;5087078;28;20271;-81
2022/09/12 04:00:13;;;;;;;0.52;0.45;;;17.10;92.30;;;;;;5091126;28;20199;-81
2022/09/12 04:02:40;;;;;;;0.93;0.70;;;17.10;92.30;;;;;;5097126;28;20237;-81
2022/09/12 04:05:07;;;;;;;0.57;0.57;;;17.10;92.30;;;;;;5077615;28;20207;-81
2022/09/12 04:07:36;;;;;;;0.50;0.50;;;17.10;92.30;;;;;;5090069;28;20212;-81
2022/09/12 04:10:03;;;;;;;0.70;0.70;;;16.80;92.20;;;;;;5092834;28;20301;-82
2022/09/12 04:12:30;;;;;;;0.70;0.70;;;17.10;92.30;;;;;;5102087;27;20203;-81
2022/09/12 04:14:57;;;;;;;0.55;0.55;;;17.10;92.30;;;;;;5067712;28;20187;-84
2022/09/12 04:17:24;;;;;;;0.75;0.73;;;17.10;92.30;;;;;;5073384;28;20679;-82
2022/09/12 04:19:51;;;;;;;0.60;0.60;;;17.00;92.30;;;;;;5086824;28;20276;-82
2022/09/12 04:22:19;;;;;;;0.73;0.70;;;17.00;92.30;;;;;;5088792;28;20209;-81
2022/09/12 04:24:48;;;;;;;0.50;0.50;;;17.00;92.60;;;;;;5090853;28;20299;-81
2022/09/12 04:27:15;;;;;;;0.50;0.50;;;17.00;92.30;;;;;;5085468;28;20187;-82
2022/09/12 04:29:42;;;;;;;0.63;0.52;;;16.70;92.10;;;;;;5091541;28;20198;-81
2022/09/12 04:32:09;;;;;;;0.50;0.50;;;17.00;92.30;;;;;;5086117;28;20218;-82
2022/09/12 04:34:36;;;;;;;0.50;0.50;;;17.00;92.30;;;;;;5071032;28;20230;-81
2022/09/12 04:37:03;;;;;;;0.70;0.70;;;17.00;92.30;;;;;;5098330;28;20251;-82
2022/09/12 04:39:30;;;;;;;0.70;0.70;;;17.00;92.40;;;;;;5081127;28;20259;-81
2022/09/12 04:41:58;;;;;;;0.60;0.60;;;16.90;92.40;;;;;;5096346;28;20222;-82
2022/09/12 04:44:25;;;;;;;1.55;0.57;;;16.90;92.40;;;;;;5092886;28;20269;-81
2022/09/12 04:46:52;;;;;;;0.60;0.60;;;16.90;92.50;;;;;;5102898;28;20676;-82
2022/09/12 04:49:19;;;;;;;0.57;0.57;;;16.80;92.50;;;;;;5090659;28;20278;-82
2022/09/12 04:51:46;;;;;;;0.80;0.80;;;16.90;92.60;;;;;;5092390;28;20198;-82
2022/09/12 04:54:15;;;;;;;0.60;0.60;;;16.80;92.60;;;;;;5072289;28;20586;-84
2022/09/12 04:56:45;;;;;;;0.60;0.60;;;16.80;92.70;;;;;;5094817;28;20216;-83
2022/09/12 04:59:14;;;;;;;0.50;0.50;;;16.80;92.70;;;;;;5085570;28;20274;-84
2022/09/12 05:01:42;;;;;;;0.70;0.50;;;16.90;92.70;;;;;;5087473;28;20232;-82
2022/09/12 05:04:10;;;;;;;0.60;0.60;;;16.90;92.70;;;;;;5068794;28;20638;-83
2022/09/12 05:06:38;;;;;;;0.70;0.70;;;16.80;92.60;;;;;;5087980;28;20663;-81
2022/09/12 05:09:08;;;;;;;1.27;0.70;;;16.90;92.70;;;;;;5089851;28;20187;-82
2022/09/12 05:11:37;;;;;;;0.53;0.53;;;16.90;92.70;;;;;;5098433;28;20385;-82
2022/09/12 05:14:04;;;;;;;1.70;0.60;;;16.90;92.70;;;;;;5070227;28;20214;-82
2022/09/12 05:16:33;;;;;;;0.85;0.60;;;17.00;92.90;;;;;;5069701;28;20210;-81
2022/09/12 05:19:00;;;;;;;0.60;0.60;;;17.00;92.80;;;;;;5087231;28;20200;-80
2022/09/12 05:21:27;;;;;;;0.60;0.60;;;17.00;92.80;;;;;;5089218;28;20230;-80
2022/09/12 05:23:56;;;;;;;0.80;0.80;;;17.00;92.80;;;;;;5084448;28;20237;-82
2022/09/12 05:26:23;;;;;;;0.70;0.70;;;17.00;92.80;;;;;;5067663;28;20212;-81
2022/09/12 05:28:52;;;;;;;0.68;0.68;;;17.00;92.80;;;;;;5094436;28;20200;-80
2022/09/12 05:31:20;;;;;;;0.40;0.40;;;17.00;92.80;;;;;;5085619;28;20199;-81
2022/09/12 05:33:50;;;;;;;0.68;0.60;;;17.00;92.90;;;;;;5070857;28;20681;-81
2022/09/12 05:36:21;;;;;;;0.80;0.80;;;17.10;92.90;;;;;;5091487;28;20203;-82
2022/09/12 05:38:48;;;;;;;1.42;0.60;;;17.10;92.80;;;;;;5090578;28;20245;-81
2022/09/12 05:41:17;;;;;;;0.60;0.60;;;17.10;92.80;;;;;;5082232;28;20199;-81
2022/09/12 05:43:46;;;;;;;0.73;0.60;;;17.20;92.80;;;;;;5089362;28;20256;-82
2022/09/12 05:46:15;;;;;;;0.60;0.60;;;17.20;93.20;;;;;;5096348;28;20310;-81
2022/09/12 05:48:43;;;;;;;0.50;0.50;;;17.20;92.80;;;;;;5095202;28;20553;-81
2022/09/12 05:51:15;;;;;;;0.52;0.52;;;17.30;92.80;;;;;;5089822;28;20199;-82
2022/09/12 05:53:42;;;;;;;0.90;0.73;;;17.30;92.80;;;;;;5092200;28;20274;-82
2022/09/12 05:56:11;;;;;;;0.73;0.50;;;17.30;92.80;;;;;;5099046;28;20269;-81
2022/09/12 05:58:40;;;;;;;0.60;0.60;;;17.40;92.90;;;;;;5089991;28;20279;-82
2022/09/12 06:01:09;;;;;;;0.60;0.60;;;17.40;92.70;;;;;;5072458;28;20243;-81
2022/09/12 06:03:39;;;;;;;0.60;0.60;;;17.50;92.70;;;;;;5078056;28;20442;-83
2022/09/12 06:06:07;;;;;;;0.50;0.50;;;17.50;92.70;;;;;;5044821;28;20247;-81
2022/09/12 06:08:36;;;;;;;0.70;0.70;;;17.60;92.70;;;;;;5042614;28;20272;-81
2022/09/12 06:11:05;;;;;;;0.50;0.50;;;17.60;92.70;;;;;;5048529;28;20220;-80
2022/09/12 06:13:33;;;;;;;0.60;0.60;;;17.60;92.70;;;;;;5052652;28;20530;-82
2022/09/12 06:16:05;;;;;;;0.70;0.70;;;17.70;92.70;;;;;;5067013;28;20187;-80
2022/09/12 06:18:32;;;;;;;0.73;0.70;;;17.70;92.60;;;;;;5058089;28;20217;-81
2022/09/12 06:21:02;;;;;;;0.70;0.70;;;17.70;92.70;;;;;;5075216;28;20211;-81
2022/09/12 06:23:29;;;;;;;0.60;0.60;;;17.80;92.60;;;;;;5050961;28;20208;-84
2022/09/12 06:25:58;;;;;;;0.77;0.77;;;17.80;92.50;;;;;;5071328;28;20231;-81
2022/09/12 06:28:26;;;;;;;0.80;0.75;;;17.90;92.50;;;;;;5076150;28;20252;-80
2022/09/12 06:30:53;;;;;;;0.80;0.80;;;17.90;92.40;;;;;;5071145;28;20200;-80
2022/09/12 06:33:20;;;;;;;0.75;0.75;;;18.00;92.40;;;;;;5056512;28;20202;-81
2022/09/12 06:35:47;;;;;;;0.90;0.73;;;18.00;92.40;;;;;;5064101;28;20211;-82
2022/09/12 06:38:16;;;;;;;1.63;0.90;;;18.10;92.50;;;;;;5071790;28;20224;-82
2022/09/12 06:40:44;;;;;;;1.40;0.90;;;18.10;92.30;;;;;;5080101;28;20201;-80
2022/09/12 06:43:13;;;;;;;0.73;0.73;;;18.20;92.30;;;;;;5054777;28;20223;-84
2022/09/12 06:45:48;;;;;;;0.80;0.80;;;18.20;92.20;;;;;;5075952;28;20217;-82
2022/09/12 06:48:15;;;;;;;0.80;0.80;;;18.20;92.20;;;;;;5064688;28;20193;-80
2022/09/12 06:50:42;;;;;;;0.70;0.70;;;18.30;92.10;;;;;;5048715;28;20578;-79
2022/09/12 06:53:09;;;;;;;0.68;0.68;;;18.40;92.20;;;;;;5066404;28;20300;-81
2022/09/12 06:55:36;;;;;;;0.65;0.65;;;18.40;92.10;;;;;;5055941;28;20609;-81
2022/09/12 06:58:04;;;;;;;0.73;0.65;;;18.50;92.20;;;;;;5061968;28;20201;-80
2022/09/12 07:00:32;;;;;;;0.73;0.68;;;18.50;92.40;;;;;;5063329;28;20193;-80
2022/09/12 07:02:59;;;;;;;0.75;0.75;;;18.60;92.30;;;;;;5064542;28;20197;-78
2022/09/12 07:05:27;;;;;;;0.73;0.73;;;18.70;92.50;;;;;;5047595;28;20548;-79
2022/09/12 07:07:53;;;;;;;0.73;0.73;;;18.80;92.60;;;;;;5054116;28;20193;-78
2022/09/12 07:10:21;;;;;;;0.70;0.70;;;18.90;92.60;;;;;;5070380;28;20281;-77
2022/09/12 07:12:48;;;;;;;1.13;0.60;;;19.00;92.60;;;;;;5066745;28;20201;-79
2022/09/12 07:15:16;;;;;;;0.50;0.50;;;19.10;92.60;;;;;;5063925;28;20224;-78
2022/09/12 07:17:48;;;;;;;0.50;0.50;;;19.20;92.80;;;;;;5067364;28;20688;-84
2022/09/12 07:20:17;;;;;;;0.60;0.60;;;19.30;92.90;;;;;;5062961;28;20193;-80
2022/09/12 07:22:45;;;;;;;0.55;0.55;;;19.40;92.70;;;;;;5068483;28;20208;-80
2022/09/12 07:25:12;;;;;;;0.70;0.70;;;19.40;92.50;;;;;;5046018;28;20259;-79
2022/09/12 07:27:39;;;;;;;0.50;0.50;;;20.10;92.80;;;;;;5070053;28;20193;-80
2022/09/12 07:30:07;;;;;;;0.85;0.85;;;19.50;92.40;;;;;;5072221;28;20196;-80
2022/09/12 07:32:34;;;;;;;0.73;0.60;;;19.60;92.30;;;;;;5062019;28;20205;-80
2022/09/12 07:35:03;;;;;;;0.57;0.47;;;19.60;92.30;;;;;;5052665;28;20189;-79
2022/09/12 07:37:31;;;;;;;0.77;0.77;;;19.60;92.20;;;;;;5071896;28;20193;-79
2022/09/12 07:39:58;;;;;;;0.60;0.60;;;19.70;92.30;;;;;;5075410;28;20192;-79
2022/09/12 07:42:25;;;;;;;0.50;0.50;;;19.80;92.20;;;;;;5048571;28;20293;-80
2022/09/12 07:44:52;;;;;;;0.60;0.60;;;19.80;92.10;;;;;;5050859;28;20196;-82
2022/09/12 07:47:19;;;;;;;0.70;0.70;;;19.90;92.30;;;;;;5044741;28;20657;-80
2022/09/12 07:49:47;;;;;;;0.88;0.63;;;19.90;92.30;;;;;;5072522;28;20185;-81
2022/09/12 07:52:15;;;;;;;0.73;0.73;;;19.90;92.30;;;;;;5069628;28;20259;-81
2022/09/12 07:54:43;;;;;;;0.70;0.70;;;20.00;92.10;;;;;;5066412;28;20185;-81
2022/09/12 07:57:10;;;;;;;0.52;0.52;;;20.00;92.20;;;;;;5069221;28;20206;-79
2022/09/12 07:59:41;;;;;;;0.88;0.70;;;20.00;91.90;;;;;;5054432;28;20232;-80
2022/09/12 08:02:12;;;;;;;0.68;0.68;;;20.00;92.10;;;;;;5050100;28;20593;-80
2022/09/12 08:04:42;;;;;;;0.73;0.70;;;19.10;91.30;;;;;;5087172;28;20192;-80
2022/09/12 08:07:09;;;;;;;0.60;0.60;;;20.20;92.10;;;;;;5095577;28;20269;-80
2022/09/12 08:09:37;;;;;;;0.60;0.60;;;20.20;91.70;;;;;;5096939;28;20191;-80
2022/09/12 08:12:05;;;;;;;1.50;0.88;;;20.20;91.60;;;;;;5077663;28;20211;-81
2022/09/12 08:14:32;;;;;;;2.58;0.90;;;20.30;91.50;;;;;;5078568;28;20224;-81
2022/09/12 08:17:02;;;;;;;0.80;0.80;;;20.40;91.70;;;;;;5094035;28;20253;-81
2022/09/12 08:19:30;;;;;;;0.50;0.50;;;20.40;91.60;;;;;;5095445;28;20196;-81
2022/09/12 08:21:57;;;;;;;0.50;0.50;;;20.50;91.40;;;;;;5088496;28;20271;-80
2022/09/12 08:24:24;;;;;;;0.70;0.70;;;20.60;91.20;;;;;;5087334;28;20238;-81
2022/09/12 08:26:53;;;;;;;4.47;2.22;;;20.70;91.10;;;;;;5088530;28;20517;-80
2022/09/12 08:29:38;;;;;;;4.45;1.80;;;20.70;90.90;;;;;;5067668;28;20192;-79
2022/09/12 08:32:07;;;;;;;2.88;1.70;;;20.80;90.90;;;;;;5092419;28;20658;-80
2022/09/12 08:34:34;;;;;;;2.25;1.42;;;20.90;90.80;;;;;;5069876;28;20203;-80
2022/09/12 08:37:01;;;;;;;2.00;1.63;;;21.00;90.70;;;;;;5091415;28;20185;-80
2022/09/12 08:39:27;;;;;;;1.55;1.10;;;21.10;90.70;;;;;;5096179;28;20732;-80
2022/09/12 08:42:04;;;;;;;4.10;1.63;;;21.10;90.50;;;;;;5100532;28;20281;-81
2022/09/12 08:44:50;;;;;;;1.73;1.13;;;21.20;90.40;;;;;;5076963;28;20192;-80
2022/09/12 08:47:22;;;;;;;2.42;1.42;;;21.20;90.00;;;;;;5087492;28;20271;-81
2022/09/12 08:50:16;;;;;;;0.98;0.93;;;21.30;90.10;;;;;;5065477;28;20352;-79
2022/09/12 08:52:51;;;;;;;1.13;1.10;;;21.30;90.00;;;;;;5064421;28;20196;-81
2022/09/12 08:55:32;;;;;;;1.13;0.98;;;21.40;89.80;;;;;;5085010;28;20195;-81
2022/09/12 08:58:07;;;;;;;0.70;0.70;;;21.40;89.60;;;;;;5092732;28;20193;-84
2022/09/12 09:00:41;;;;;;;1.50;0.75;;;21.50;89.50;;;;;;5068217;28;20662;-80
2022/09/12 09:03:30;;;;;;;0.70;0.70;;;21.50;89.20;;;;;;5087637;28;20196;-80
2022/09/12 09:06:03;;;;;;;0.68;0.68;;;21.50;88.70;;;;;;5069163;28;20278;-80
2022/09/12 09:08:46;;;;;;;0.50;0.50;;;21.50;88.30;;;;;;5068009;28;20957;-80
2022/09/12 09:11:26;;;;;;;0.70;0.70;;;21.50;88.10;;;;;;5067277;28;20526;-80
2022/09/12 09:16:52;;;;;;;0.40;0.40;;;21.60;87.50;;;;;;5074112;28;20192;-81
2022/09/12 09:19:23;;;;;;;2.10;0.70;;;21.60;87.50;;;;;;5072485;28;20214;-79
2022/09/12 09:21:54;;;;;;;0.70;0.70;;;21.70;88.00;;;;;;5067199;28;20192;-82
2022/09/12 09:24:27;;;;;;;1.08;0.80;;;21.80;87.30;;;;;;5088191;28;20200;-81
2022/09/12 09:26:59;;;;;;;0.77;0.77;;;21.80;87.30;;;;;;5084334;28;20208;-80
2022/09/12 09:29:33;;;;;;;0.80;0.80;;;21.90;87.00;;;;;;5065784;28;20245;-81
2022/09/12 09:32:03;;;;;;;1.92;0.82;;;22.00;86.10;;;;;;5066940;28;20197;-83
2022/09/12 09:34:31;;;;;;;1.75;0.90;;;22.10;85.90;;;;;;5087763;28;20200;-82
2022/09/12 09:37:07;;;;;;;0.80;0.68;;;22.10;84.70;;;;;;5071115;28;20196;-81
2022/09/12 09:39:46;;;;;;;0.75;0.75;;;22.10;84.30;;;;;;5067090;28;20206;-82
2022/09/12 09:42:24;;;;;;;0.70;0.65;;;22.30;84.30;;;;;;5074127;28;20204;-82
2022/09/12 09:44:55;;;;;;;0.70;0.70;;;22.40;83.90;;;;;;5087913;28;20238;-80
2022/09/12 09:47:23;;;;;;;0.65;0.65;;;22.50;83.60;;;;;;5092896;28;20228;-80
2022/09/12 09:49:50;;;;;;;38.80;10.93;;;22.70;84.40;;;;;;5089668;28;20200;-81
2022/09/12 09:52:24;;;;;;;20.60;6.07;;;22.80;83.30;;;;;;5069417;28;20314;-83
2022/09/12 09:54:56;;;;;;;6.95;3.00;;;23.70;83.40;;;;;;5066206;28;20227;-82
2022/09/12 09:57:40;;;;;;;4.55;1.90;;;23.10;82.00;;;;;;5070375;28;20197;-81
2022/09/12 10:00:26;;;;;;;1.58;1.30;;;23.20;81.40;;;;;;5075380;28;20618;-80
2022/09/12 10:03:05;;;;;;;0.93;0.93;;;23.40;81.00;;;;;;5070026;28;20189;-84
2022/09/12 10:05:37;;;;;;;1.95;1.10;;;23.60;80.60;;;;;;5073334;28;20196;-84
2022/09/12 10:08:07;;;;;;;0.90;0.90;;;23.90;80.90;;;;;;5066709;28;20284;-82
2022/09/12 10:10:34;;;;;;;1.70;1.05;;;23.90;80.70;;;;;;5071425;28;20208;-85
2022/09/12 10:13:08;;;;;;;1.90;0.80;;;23.90;80.50;;;;;;5074325;28;20197;-84
2022/09/12 10:15:37;;;;;;;0.57;0.57;;;24.00;78.90;;;;;;5072184;28;20259;-83
2022/09/12 10:18:07;;;;;;;1.05;1.02;;;24.20;79.00;;;;;;5044274;28;20194;-84
2022/09/12 10:20:37;;;;;;;2.25;0.80;;;24.30;78.10;;;;;;5067402;28;20193;-83
2022/09/12 10:23:28;;;;;;;0.70;0.70;;;24.30;77.40;;;;;;5065366;28;20189;-84
2022/09/12 10:26:00;;;;;;;0.77;0.77;;;24.50;76.50;;;;;;5058445;28;20239;-84
2022/09/12 10:28:33;;;;;;;0.77;0.77;;;24.60;76.10;;;;;;5073175;28;20218;-85
2022/09/12 10:31:02;;;;;;;0.70;0.70;;;24.70;75.60;;;;;;5068806;28;20194;-83
2022/09/12 10:33:30;;;;;;;0.73;0.73;;;24.90;74.90;;;;;;5046634;28;20197;-81
2022/09/12 10:35:58;;;;;;;0.70;0.70;;;25.00;74.10;;;;;;5068964;28;20239;-80
2022/09/12 10:38:27;;;;;;;1.02;0.70;;;25.20;73.70;;;;;;5064899;28;20287;-82
2022/09/12 10:41:01;;;;;;;1.65;0.60;;;25.30;73.00;;;;;;5074398;28;20201;-83
2022/09/12 10:43:30;;;;;;;0.93;0.52;;;25.40;72.10;;;;;;5052190;28;20217;-82
2022/09/12 10:45:58;;;;;;;0.60;0.60;;;25.50;71.80;;;;;;5050400;28;20209;-81
2022/09/12 10:48:30;;;;;;;0.90;0.90;;;25.60;71.40;;;;;;5053883;28;20221;-82
2022/09/12 10:50:58;;;;;;;0.70;0.70;;;25.70;70.90;;;;;;5065604;28;20303;-82
2022/09/12 10:53:26;;;;;;;0.70;0.70;;;25.80;70.30;;;;;;5072037;28;20197;-81
2022/09/12 10:56:05;;;;;;;1.00;0.80;;;25.90;69.70;;;;;;5066584;28;20232;-81
2022/09/12 10:59:10;;;;;;;1.52;0.98;;;25.90;69.20;;;;;;5067490;28;20197;-82
2022/09/12 11:01:41;;;;;;;1.10;1.00;;;26.00;68.50;;;;;;5056123;28;20219;-81
2022/09/12 11:04:34;;;;;;;0.77;0.77;;;26.10;67.90;;;;;;5092172;28;20310;-83
2022/09/12 11:07:19;;;;;;;1.00;0.90;;;26.20;67.60;;;;;;5087597;28;20208;-81
2022/09/12 11:09:55;;;;;;;0.77;0.77;;;26.20;66.90;;;;;;5087339;28;20268;-82
2022/09/12 11:12:30;;;;;;;2.60;1.10;;;26.20;66.50;;;;;;5092540;28;20191;-82
2022/09/12 11:15:10;;;;;;;3.80;1.00;;;26.30;66.50;;;;;;5092535;28;20247;-82
2022/09/12 11:17:47;;;;;;;1.25;0.80;;;26.30;66.60;;;;;;5070712;28;20197;-85
2022/09/12 11:20:44;;;;;;;1.20;1.10;;;26.40;66.00;;;;;;5073559;28;20196;-82
2022/09/12 11:23:31;;;;;;;1.00;1.00;;;26.30;64.90;;;;;;5093949;28;20184;-79
2022/09/12 11:26:06;;;;;;;0.93;0.90;;;26.20;65.20;;;;;;5086492;28;20557;-80
2022/09/12 11:28:43;;;;;;;2.40;0.90;;;26.20;65.20;;;;;;5096855;28;20230;-80
2022/09/12 11:31:50;;;;;;;4.43;1.10;;;26.20;64.90;;;;;;5073505;28;20197;-80
2022/09/12 11:34:26;;;;;;;0.90;0.80;;;26.20;64.50;;;;;;4995062;28;20230;-81
2022/09/12 11:37:08;;;;;;;1.15;1.05;;;26.20;64.50;;;;;;5067387;28;20196;-83
2022/09/12 11:39:40;;;;;;;1.25;1.00;;;26.20;64.40;;;;;;5085344;28;20604;-81
2022/09/12 11:42:15;;;;;;;1.15;0.93;;;26.20;63.90;;;;;;5092035;28;20192;-82
2022/09/12 11:44:47;;;;;;;1.73;1.00;;;26.10;63.80;;;;;;5084274;28;20258;-81
2022/09/12 11:47:14;;;;;;;0.85;0.80;;;25.20;63.40;;;;;;5104737;28;20669;-80
2022/09/12 11:49:46;;;;;;;4.93;1.02;;;26.10;65.00;;;;;;5072551;28;20279;-80
2022/09/12 11:52:16;;;;;;;2.53;0.90;;;26.10;63.10;;;;;;5106739;28;20194;-81
2022/09/12 11:54:48;;;;;;;0.75;0.75;;;25.90;62.70;;;;;;5076364;28;20196;-80
2022/09/12 11:57:19;;;;;;;68.18;19.15;;;25.80;62.40;;;;;;5077603;28;20189;-80
2022/09/12 11:59:51;;;;;;;28.85;8.65;;;25.70;62.60;;;;;;5097809;28;20199;-81
2022/09/12 12:02:26;;;;;;;11.45;4.60;;;25.70;62.30;;;;;;5069767;28;20244;-79
2022/09/12 12:05:05;;;;;;;4.90;2.85;;;25.70;62.60;;;;;;5068596;28;20238;-80
2022/09/12 12:07:41;;;;;;;2.92;1.73;;;25.80;62.90;;;;;;5071893;28;20205;-80
2022/09/12 12:10:27;;;;;;;6.90;1.35;;;25.80;62.90;;;;;;5099751;27;20208;-79
2022/09/12 12:12:56;;;;;;;4.85;1.33;;;25.80;63.10;;;;;;5069903;28;20200;-80
2022/09/12 12:15:25;;;;;;;1.98;1.00;;;25.80;62.60;;;;;;5074008;28;20204;-80
2022/09/12 12:18:08;;;;;;;1.13;0.90;;;25.70;62.50;;;;;;5088576;28;20669;-80
2022/09/12 12:20:35;;;;;;;1.10;0.90;;;25.70;62.20;;;;;;5085732;28;20226;-82
2022/09/12 12:23:04;;;;;;;1.60;0.93;;;25.70;62.30;;;;;;5084331;28;20267;-81
2022/09/12 12:25:41;;;;;;;0.77;0.73;;;25.70;62.40;;;;;;5091134;28;20188;-84
2022/09/12 12:28:08;;;;;;;0.80;0.70;;;25.70;62.00;;;;;;5065386;28;20295;-86
2022/09/12 12:31:04;;;;;;;3.38;0.77;;;25.70;61.80;;;;;;5079638;28;20316;-79
2022/09/12 12:33:55;;;;;;;1.10;0.80;;;25.60;61.50;;;;;;5096675;28;20188;-83
2022/09/12 12:36:41;;;;;;;0.80;0.80;;;25.60;61.40;;;;;;5087452;28;20254;-82
2022/09/12 12:39:44;;;;;;;1.63;0.80;;;25.60;61.30;;;;;;5064225;28;20235;-82
2022/09/12 12:43:00;;;;;;;3.20;0.77;;;25.40;59.80;;;;;;5050412;28;20191;-84
2022/09/12 12:46:00;;;;;;;1.23;0.75;;;25.30;60.20;;;;;;5074721;28;20327;-82
2022/09/12 12:48:43;;;;;;;0.80;0.80;;;25.30;61.00;;;;;;5075915;28;20321;-82
2022/09/12 12:51:37;;;;;;;0.80;0.80;;;25.50;61.90;;;;;;5072758;28;20205;-82
2022/09/12 12:54:26;;;;;;;1.17;0.95;;;26.90;60.70;;;;;;5071340;28;20682;-83
2022/09/12 12:57:02;;;;;;;0.80;0.80;;;28.80;57.90;;;;;;5091845;28;20247;-82
2022/09/12 12:59:31;;;;;;;0.90;0.90;;;30.70;54.90;;;;;;5085122;28;20220;-81
2022/09/12 13:02:00;;;;;;;0.82;0.80;;;31.50;52.10;;;;;;5089165;28;20227;-82
2022/09/12 13:04:31;;;;;;;0.80;0.73;;;31.20;50.80;;;;;;5076173;28;20195;-82
2022/09/12 13:07:05;;;;;;;2.22;0.80;;;30.40;50.90;;;;;;5095270;28;20497;-84
2022/09/12 13:09:38;;;;;;;2.65;0.80;;;29.50;52.60;;;;;;5088938;28;20218;-80
2022/09/12 13:12:08;;;;;;;0.63;0.63;;;28.80;52.90;;;;;;5093217;28;20192;-81
2022/09/12 13:14:54;;;;;;;0.70;0.70;;;28.20;53.70;;;;;;5075007;28;20245;-79